LESO

San Sebastian Airport

Hondarribia, Spain
TAF LESO 171700Z 1718/1818 15009KT CAVOK TX16/1813Z TN09/1806Z PROB40 TEMPO 1806/1818 09010KT SHRA RA SCT025TCU
Issued Valid From Valid To
Nov-17 @ 17:00 UTC
(5 hours ago)
Nov-17 @ 18:00 UTC
(4 hours ago)
Nov-18 @ 18:00 UTC
(in 20 hours)
Nov-17 @ 18:00 to Nov-18 @ 18:00
TAF LESO 171700Z 1718/1818 15009KT CAVOK TX16/1813Z TN09/1806Z
Wind Visibility Clouds
150° at 9 knots 10,000+ meters
  • No significant clouds
Temporary  (Probability 40%) Nov-18 @ 06:00 to Nov-18 @ 18:00
PROB40 TEMPO 1806/1818 09010KT SHRA RA SCT025TCU
Wind Clouds Conditions
90° at 10 knots
  • Scattered at 2,500' AGL
  • Rain
  • Rain
TAF LESO 171700Z 1718/1818 15009KT CAVOK TX16/1813Z TN09/1806Z PROB40 TEMPO 1806/1818 09010KT SHRA RA SCT025TCU
Issued Nov-17 @ 17:00 UTC
(5 hours ago)
Valid From Nov-17 @ 18:00 UTC
(4 hours ago)
Valid To Nov-18 @ 18:00 UTC
(in 20 hours)
Nov-17 @ 18:00 - Nov-18 @ 18:00
Wind Visibility
150° at 9 knots 10,000+ meters
Clouds
  • No significant clouds
Probability 40% Temporary Nov-18 @ 06:00 - Nov-18 @ 18:00
Wind
90° at 10 knots
Clouds
  • Scattered at 2,500' AGL
Conditions
  • Rain
  • Rain